createdAt,value
2023-01-15T00:02:18.256Z,4.87
2023-01-15T00:04:44.762Z,4.93
2023-01-15T00:07:11.177Z,4.91
2023-01-15T00:09:37.692Z,4.97
2023-01-15T00:12:04.539Z,5.07
2023-01-15T00:14:31.009Z,5.05
2023-01-15T00:16:57.639Z,5.10
2023-01-15T00:19:24.313Z,5.14
2023-01-15T00:21:50.757Z,5.19
2023-01-15T00:24:35.738Z,5.24
2023-01-15T00:27:21.026Z,5.26
2023-01-15T00:29:47.489Z,5.27
2023-01-15T00:32:14.097Z,5.34
2023-01-15T00:34:40.617Z,5.34
2023-01-15T00:37:07.120Z,5.37
2023-01-15T00:39:34.774Z,5.36
2023-01-15T00:42:01.269Z,5.41
2023-01-15T00:44:27.791Z,5.43
2023-01-15T00:46:54.273Z,5.49
2023-01-15T00:49:20.732Z,5.45
2023-01-15T00:51:48.610Z,5.44
2023-01-15T00:54:15.045Z,5.44
2023-01-15T00:56:41.514Z,5.42
2023-01-15T00:59:07.958Z,5.51
2023-01-15T01:01:34.494Z,5.53
2023-01-15T01:04:01.043Z,5.58
2023-01-15T01:06:27.758Z,5.61
2023-01-15T01:08:54.229Z,5.57
2023-01-15T01:11:21.380Z,5.60
2023-01-15T01:13:49.111Z,5.66
2023-01-15T01:16:22.625Z,5.60
2023-01-15T01:18:49.100Z,5.56
2023-01-15T01:21:15.701Z,5.57
2023-01-15T01:23:42.128Z,5.59
2023-01-15T01:26:08.582Z,5.61
2023-01-15T01:28:35.007Z,5.65
2023-01-15T01:31:04.420Z,5.71
2023-01-15T01:33:30.882Z,5.70
2023-01-15T01:35:57.346Z,5.62
2023-01-15T01:38:25.769Z,5.56
2023-01-15T01:40:52.236Z,5.44
2023-01-15T01:43:19.501Z,5.49
2023-01-15T01:45:45.950Z,5.59
2023-01-15T01:48:12.459Z,5.54
2023-01-15T01:50:38.879Z,5.51
2023-01-15T01:53:08.834Z,5.54
2023-01-15T01:55:35.274Z,5.60
2023-01-15T01:58:02.235Z,5.59
2023-01-15T02:00:28.686Z,5.58
2023-01-15T02:02:55.351Z,5.58
2023-01-15T02:05:23.943Z,5.57
2023-01-15T02:07:50.369Z,5.56
2023-01-15T02:10:17.040Z,5.56
2023-01-15T02:12:45.683Z,5.49
2023-01-15T02:15:19.311Z,5.47
2023-01-15T02:17:48.009Z,5.42
2023-01-15T02:20:17.675Z,5.40
2023-01-15T02:23:02.868Z,5.37
2023-01-15T02:25:34.143Z,5.39
2023-01-15T02:28:29.936Z,5.35
2023-01-15T02:31:14.948Z,5.27
2023-01-15T02:33:44.451Z,5.22
2023-01-15T02:36:11.615Z,5.19
2023-01-15T02:38:39.675Z,5.17
2023-01-15T02:41:06.619Z,5.19
2023-01-15T02:43:34.506Z,5.20
2023-01-15T02:46:00.995Z,5.22
2023-01-15T02:48:28.235Z,5.24
2023-01-15T02:50:59.375Z,5.18
2023-01-15T02:53:26.884Z,5.23
2023-01-15T02:55:54.599Z,5.27
2023-01-15T02:58:21.999Z,5.28
2023-01-15T03:00:49.457Z,5.23
2023-01-15T03:03:22.105Z,5.23
2023-01-15T03:05:57.894Z,5.18
2023-01-15T03:08:24.332Z,5.16
2023-01-15T03:11:09.634Z,5.18
2023-01-15T03:13:40.479Z,5.20
2023-01-15T03:16:37.792Z,5.15
2023-01-15T03:19:22.767Z,5.17
2023-01-15T03:21:49.180Z,5.18
2023-01-15T03:24:18.368Z,5.17
2023-01-15T03:26:44.915Z,5.17
2023-01-15T03:29:11.536Z,5.18
2023-01-15T03:31:38.061Z,5.09
2023-01-15T03:37:32.771Z,4.97
2023-01-15T03:39:59.192Z,5.01
2023-01-15T03:42:28.640Z,4.98
2023-01-15T03:45:02.296Z,4.99
2023-01-15T03:47:34.944Z,4.98
2023-01-15T03:50:20.198Z,4.96
2023-01-15T03:52:58.776Z,4.91
2023-01-15T03:55:34.277Z,4.91
2023-01-15T03:58:02.586Z,4.91
2023-01-15T04:00:38.924Z,4.91
2023-01-15T04:03:05.928Z,4.98
2023-01-15T04:05:32.351Z,4.97
2023-01-15T04:07:58.983Z,5.01
2023-01-15T04:10:25.476Z,5.06
2023-01-15T04:12:52.003Z,5.17
2023-01-15T04:15:19.159Z,5.07
2023-01-15T04:17:45.626Z,5.13
2023-01-15T04:20:12.308Z,5.09
2023-01-15T04:22:38.952Z,5.11
2023-01-15T04:25:05.823Z,5.14
2023-01-15T04:27:32.275Z,5.23
2023-01-15T04:29:58.771Z,5.23
2023-01-15T04:32:25.515Z,5.27
2023-01-15T04:34:52.024Z,5.21
2023-01-15T04:37:18.675Z,5.15
2023-01-15T04:39:45.094Z,5.20
2023-01-15T04:42:33.552Z,5.21
2023-01-15T04:44:59.987Z,5.24
2023-01-15T04:47:26.477Z,5.18
2023-01-15T04:49:52.937Z,5.14
2023-01-15T04:52:19.546Z,5.13
2023-01-15T04:54:46.032Z,5.18
2023-01-15T04:57:12.530Z,5.25
2023-01-15T04:59:38.994Z,5.26
2023-01-15T05:02:06.808Z,5.37
2023-01-15T05:04:33.832Z,5.42
2023-01-15T05:07:01.318Z,5.47
2023-01-15T05:09:27.736Z,5.41
2023-01-15T05:11:54.195Z,5.31
2023-01-15T05:14:20.622Z,5.40
2023-01-15T05:16:47.061Z,5.38
2023-01-15T05:22:41.759Z,5.38
2023-01-15T05:25:08.427Z,5.38
2023-01-15T05:27:34.862Z,5.37
2023-01-15T05:30:01.322Z,5.43
2023-01-15T05:32:27.953Z,5.45
2023-01-15T05:34:54.571Z,5.44
2023-01-15T05:37:21.002Z,5.43
2023-01-15T05:39:47.488Z,5.33
2023-01-15T05:42:13.916Z,5.36
2023-01-15T05:44:40.417Z,5.41
2023-01-15T05:47:08.113Z,5.43
2023-01-15T05:49:34.670Z,5.41
2023-01-15T05:52:01.376Z,5.40
2023-01-15T05:54:29.631Z,5.34
2023-01-15T05:56:56.101Z,5.32
2023-01-15T05:59:23.724Z,5.43
2023-01-15T06:01:50.478Z,5.46
2023-01-15T06:04:20.997Z,5.46
2023-01-15T06:06:48.000Z,5.42
2023-01-15T06:09:14.445Z,5.40
2023-01-15T06:11:41.077Z,5.36
2023-01-15T06:14:07.654Z,5.34
2023-01-15T06:16:34.130Z,5.36
2023-01-15T06:19:04.382Z,5.34
2023-01-15T06:21:31.241Z,5.37
2023-01-15T06:23:57.678Z,5.30
2023-01-15T06:26:24.191Z,5.35
2023-01-15T06:28:50.798Z,5.32
2023-01-15T06:31:17.969Z,5.33
2023-01-15T06:33:44.715Z,5.31
2023-01-15T06:36:18.113Z,5.24
2023-01-15T06:38:44.704Z,5.17
2023-01-15T06:41:33.764Z,5.24
2023-01-15T06:44:18.827Z,5.29
2023-01-15T06:47:04.483Z,5.21
2023-01-15T06:49:31.142Z,5.26
2023-01-15T06:51:57.565Z,5.20
2023-01-15T06:54:24.048Z,5.18
2023-01-15T06:56:50.468Z,5.15
2023-01-15T06:59:17.264Z,5.18
2023-01-15T07:01:43.750Z,5.20
2023-01-15T07:04:10.359Z,5.25
2023-01-15T07:06:36.992Z,5.34
2023-01-15T07:09:03.716Z,5.26
2023-01-15T07:11:30.151Z,5.18
2023-01-15T07:14:06.004Z,5.22
2023-01-15T07:19:54.133Z,5.29
2023-01-15T07:22:20.550Z,5.33
2023-01-15T07:24:46.967Z,5.42
2023-01-15T07:27:13.433Z,5.47
2023-01-15T07:29:39.874Z,5.45
2023-01-15T07:32:06.329Z,5.46
2023-01-15T07:34:33.055Z,5.36
2023-01-15T07:36:59.492Z,5.33
2023-01-15T07:39:25.926Z,5.40
2023-01-15T07:42:11.188Z,5.47
2023-01-15T07:44:56.439Z,5.42
2023-01-15T07:47:42.258Z,5.51
2023-01-15T07:50:13.411Z,5.67
2023-01-15T07:52:39.898Z,5.67
2023-01-15T07:55:08.556Z,5.69
2023-01-15T07:57:35.052Z,5.69
2023-01-15T08:00:01.536Z,5.68
2023-01-15T08:02:28.095Z,5.77
2023-01-15T08:04:54.530Z,5.76
2023-01-15T08:07:20.966Z,5.78
2023-01-15T08:09:47.455Z,5.71
2023-01-15T08:15:38.213Z,5.79
2023-01-15T08:18:05.212Z,5.91
2023-01-15T08:20:31.724Z,5.89
2023-01-15T08:22:58.225Z,5.87
2023-01-15T08:25:25.004Z,5.83
2023-01-15T08:27:51.527Z,5.84
2023-01-15T08:30:19.036Z,5.91
2023-01-15T08:33:10.329Z,5.93
2023-01-15T08:35:36.833Z,5.97
2023-01-15T08:38:06.595Z,5.99
2023-01-15T08:40:33.315Z,5.98
2023-01-15T08:42:59.778Z,6.01
2023-01-15T08:45:26.211Z,6.10
2023-01-15T08:47:54.918Z,6.14
2023-01-15T08:50:21.437Z,6.08
2023-01-15T08:52:47.897Z,6.08
2023-01-15T08:55:14.402Z,6.12
2023-01-15T08:57:40.875Z,6.11
2023-01-15T09:00:07.950Z,6.12
2023-01-15T09:02:34.401Z,6.03
2023-01-15T09:05:00.999Z,6.00
2023-01-15T09:07:27.542Z,5.97
2023-01-15T09:09:54.296Z,5.98
2023-01-15T09:12:24.838Z,5.95
2023-01-15T09:15:00.478Z,5.94
2023-01-15T09:17:29.342Z,5.97
2023-01-15T09:19:58.719Z,5.96
2023-01-15T09:22:28.142Z,5.96
2023-01-15T09:24:54.636Z,5.88
2023-01-15T09:27:21.224Z,6.00
2023-01-15T09:29:47.659Z,5.96
2023-01-15T09:32:14.639Z,5.88
2023-01-15T09:34:41.079Z,5.85
2023-01-15T09:37:07.580Z,5.81
2023-01-15T09:39:34.137Z,5.82
2023-01-15T09:42:20.917Z,5.73
2023-01-15T09:44:47.567Z,5.64
2023-01-15T09:47:40.462Z,5.74
2023-01-15T09:50:21.722Z,5.68
2023-01-15T09:52:51.395Z,5.72
2023-01-15T09:55:17.829Z,5.66
2023-01-15T09:57:46.404Z,5.59
2023-01-15T10:00:14.297Z,5.57
2023-01-15T10:02:44.347Z,5.56
2023-01-15T10:05:21.628Z,5.53
2023-01-15T10:08:00.459Z,5.46
2023-01-15T10:10:38.396Z,5.38
2023-01-15T10:13:25.156Z,5.36
2023-01-15T10:15:55.410Z,5.37
2023-01-15T10:18:23.945Z,5.34
2023-01-15T10:21:00.529Z,5.33
2023-01-15T10:23:30.193Z,5.25
2023-01-15T10:26:18.369Z,5.24
2023-01-15T10:29:11.848Z,5.21
2023-01-15T10:31:38.294Z,5.17
2023-01-15T10:34:07.763Z,5.17
2023-01-15T10:36:45.587Z,5.19
2023-01-15T10:39:27.850Z,5.23
2023-01-15T10:42:14.640Z,5.26
2023-01-15T10:44:46.941Z,5.26
2023-01-15T10:47:15.390Z,5.28
2023-01-15T10:49:41.977Z,5.29
2023-01-15T10:52:22.438Z,5.27
2023-01-15T10:54:54.437Z,5.25
2023-01-15T10:57:27.688Z,5.25
2023-01-15T10:59:57.892Z,5.26
2023-01-15T11:02:27.567Z,5.28
2023-01-15T11:04:54.451Z,5.31
2023-01-15T11:07:34.549Z,5.25
2023-01-15T11:10:02.138Z,5.26
2023-01-15T11:12:47.808Z,5.27
2023-01-15T11:15:40.516Z,5.30
2023-01-15T11:18:29.857Z,5.29
2023-01-15T11:20:56.456Z,5.29
2023-01-15T11:23:23.374Z,5.25
2023-01-15T11:25:52.975Z,5.24
2023-01-15T11:28:21.365Z,5.23
2023-01-15T11:30:53.294Z,5.19
2023-01-15T11:33:27.933Z,5.14
2023-01-15T11:35:58.785Z,5.05
2023-01-15T11:38:26.295Z,5.02
2023-01-15T11:40:57.454Z,5.10
2023-01-15T11:43:43.379Z,5.16
2023-01-15T11:46:47.874Z,5.13
2023-01-15T11:49:38.548Z,5.16
2023-01-15T11:52:05.996Z,5.11
2023-01-15T11:54:32.459Z,5.08
2023-01-15T11:56:58.926Z,5.08
2023-01-15T11:59:25.481Z,5.20
2023-01-15T12:01:59.643Z,5.20
2023-01-15T12:04:29.252Z,5.24
2023-01-15T12:06:55.867Z,5.24
2023-01-15T12:09:22.655Z,5.26
2023-01-15T12:11:49.124Z,5.20
2023-01-15T12:17:50.405Z,5.23
2023-01-15T12:20:21.877Z,5.16
2023-01-15T12:22:54.776Z,5.21
2023-01-15T12:25:39.823Z,5.20
2023-01-15T12:28:09.984Z,5.16
2023-01-15T12:30:52.873Z,5.11
2023-01-15T12:33:25.443Z,5.13
2023-01-15T12:36:15.236Z,5.22
2023-01-15T12:38:44.491Z,5.20
2023-01-15T12:41:12.509Z,5.16
2023-01-15T12:43:57.687Z,5.13
2023-01-15T12:46:29.292Z,5.07
2023-01-15T12:48:56.193Z,5.09
2023-01-15T12:51:45.943Z,4.97
2023-01-15T12:54:13.302Z,4.88
2023-01-15T12:56:42.888Z,4.87
2023-01-15T12:59:26.765Z,4.90
2023-01-15T13:01:56.993Z,4.91
2023-01-15T13:04:23.505Z,4.96
2023-01-15T13:06:54.239Z,4.99
2023-01-15T13:09:25.607Z,4.94
2023-01-15T13:11:52.185Z,4.93
2023-01-15T13:14:18.631Z,4.90
2023-01-15T13:16:53.915Z,4.87
2023-01-15T13:19:40.576Z,4.88
2023-01-15T13:22:09.974Z,4.80
2023-01-15T13:24:55.261Z,4.93
2023-01-15T13:27:44.982Z,4.92
2023-01-15T13:30:21.392Z,4.91
2023-01-15T13:32:56.495Z,4.87
2023-01-15T13:35:22.942Z,4.89
2023-01-15T13:37:50.004Z,4.87
2023-01-15T13:40:23.900Z,4.83
2023-01-15T13:42:50.368Z,4.73
2023-01-15T13:45:16.806Z,4.66
2023-01-15T13:47:50.828Z,4.64
2023-01-15T13:50:18.354Z,4.65
2023-01-15T13:52:44.823Z,4.64
2023-01-15T13:55:20.610Z,4.58
2023-01-15T13:57:49.017Z,4.55
2023-01-15T14:00:31.111Z,4.49
2023-01-15T14:02:58.488Z,4.52
2023-01-15T14:05:32.265Z,4.51
2023-01-15T14:07:59.153Z,4.49
2023-01-15T14:10:25.705Z,4.49
2023-01-15T14:12:55.154Z,4.48
2023-01-15T14:15:21.580Z,4.49
2023-01-15T14:18:08.416Z,4.50
2023-01-15T14:20:35.716Z,4.51
2023-01-15T14:23:11.377Z,4.53
2023-01-15T14:25:43.851Z,4.50
2023-01-15T14:28:14.388Z,4.53
2023-01-15T14:30:44.788Z,4.56
2023-01-15T14:33:29.937Z,4.55
2023-01-15T14:35:56.407Z,4.52
2023-01-15T14:38:23.667Z,4.53
2023-01-15T14:41:00.162Z,4.61
2023-01-15T14:43:27.089Z,4.66
2023-01-15T14:45:53.787Z,4.69
2023-01-15T14:48:29.359Z,4.72
2023-01-15T14:51:16.039Z,4.65
2023-01-15T14:53:47.209Z,4.61
2023-01-15T14:56:20.873Z,4.62
2023-01-15T14:58:50.440Z,4.68
2023-01-15T15:01:36.080Z,4.73
2023-01-15T15:04:10.086Z,4.69
2023-01-15T15:06:50.634Z,4.58
2023-01-15T15:09:35.939Z,4.54
2023-01-15T15:12:20.746Z,4.60
2023-01-15T15:14:49.501Z,4.59
2023-01-15T15:17:19.070Z,4.54
2023-01-15T15:19:46.359Z,4.59
2023-01-15T15:22:13.540Z,4.65
2023-01-15T15:24:43.835Z,4.70
2023-01-15T15:27:17.275Z,4.72
2023-01-15T15:29:43.768Z,4.72
2023-01-15T15:32:11.368Z,4.69
2023-01-15T15:34:40.265Z,4.71
2023-01-15T15:37:12.883Z,4.67
2023-01-15T15:39:45.158Z,4.72
2023-01-15T15:42:32.636Z,4.71
2023-01-15T15:45:17.771Z,4.79
2023-01-15T15:48:02.915Z,4.73
2023-01-15T15:50:33.226Z,4.70
2023-01-15T15:53:04.234Z,4.67
2023-01-15T15:55:37.523Z,4.75
2023-01-15T15:58:03.962Z,4.68
2023-01-15T16:00:31.814Z,4.64
2023-01-15T16:06:27.731Z,4.54
2023-01-15T16:09:04.827Z,4.55
2023-01-15T16:11:31.904Z,4.49
2023-01-15T16:13:58.950Z,4.51
2023-01-15T16:16:26.199Z,4.49
2023-01-15T16:18:53.525Z,4.48
2023-01-15T16:21:20.981Z,4.47
2023-01-15T16:24:02.427Z,4.46
2023-01-15T16:26:30.602Z,4.43
2023-01-15T16:28:57.586Z,4.47
2023-01-15T16:31:24.125Z,4.41
2023-01-15T16:33:54.494Z,4.41
2023-01-15T16:36:22.440Z,4.40
2023-01-15T16:38:49.230Z,4.37
2023-01-15T16:41:27.787Z,4.34
2023-01-15T16:43:59.063Z,4.34
2023-01-15T16:46:26.549Z,4.30
2023-01-15T16:49:13.013Z,4.39
2023-01-15T16:51:42.922Z,4.55
2023-01-15T16:54:28.207Z,4.50
2023-01-15T16:56:54.772Z,4.35
2023-01-15T16:59:27.352Z,4.28
2023-01-15T17:01:56.973Z,4.20
2023-01-15T17:04:29.578Z,4.09
2023-01-15T17:06:56.722Z,4.08
2023-01-15T17:09:23.826Z,4.07
2023-01-15T17:11:50.667Z,4.03
2023-01-15T17:14:20.289Z,4.04
2023-01-15T17:16:46.743Z,3.95
2023-01-15T17:19:13.194Z,3.88
2023-01-15T17:21:39.816Z,3.88
2023-01-15T17:24:06.972Z,3.83
2023-01-15T17:26:33.491Z,3.81
2023-01-15T17:29:00.215Z,3.69
2023-01-15T17:31:28.885Z,3.62
2023-01-15T17:33:55.654Z,3.51
2023-01-15T17:36:22.191Z,3.51
2023-01-15T17:38:48.607Z,3.44
2023-01-15T17:41:15.776Z,3.47
2023-01-15T17:43:42.309Z,3.42
2023-01-15T17:46:08.940Z,3.43
2023-01-15T17:48:35.639Z,3.39
2023-01-15T17:51:02.849Z,3.44
2023-01-15T17:53:29.797Z,3.41
2023-01-15T17:56:15.010Z,3.37
2023-01-15T17:59:00.110Z,3.31
2023-01-15T18:01:45.371Z,3.30
2023-01-15T18:04:35.157Z,3.27
2023-01-15T18:07:01.713Z,3.33
2023-01-15T18:09:28.190Z,3.32
2023-01-15T18:11:54.756Z,3.29
2023-01-15T18:14:21.255Z,3.32
2023-01-15T18:16:47.804Z,3.27
2023-01-15T18:19:14.295Z,3.33
2023-01-15T18:21:40.906Z,3.28
2023-01-15T18:24:11.935Z,3.26
2023-01-15T18:26:39.113Z,3.26
2023-01-15T18:29:06.111Z,3.28
2023-01-15T18:31:32.939Z,3.26
2023-01-15T18:33:59.710Z,3.26
2023-01-15T18:36:26.330Z,3.31
2023-01-15T18:38:53.655Z,3.31
2023-01-15T18:41:35.991Z,3.29
2023-01-15T18:44:21.908Z,3.24
2023-01-15T18:46:50.528Z,3.20
2023-01-15T18:49:17.022Z,3.20
2023-01-15T18:51:43.571Z,3.20
2023-01-15T18:54:10.369Z,3.22
2023-01-15T18:56:39.892Z,3.18
2023-01-15T18:59:07.221Z,3.15
2023-01-15T19:01:33.932Z,3.17
2023-01-15T19:04:00.400Z,3.20
2023-01-15T19:06:27.029Z,3.18
2023-01-15T19:08:53.527Z,3.13
2023-01-15T19:11:19.962Z,3.15
2023-01-15T19:14:06.378Z,3.14
2023-01-15T19:16:55.672Z,3.14
2023-01-15T19:22:59.093Z,3.20
2023-01-15T19:25:43.067Z,3.22
2023-01-15T19:28:10.531Z,3.24
2023-01-15T19:30:37.632Z,3.28
2023-01-15T19:33:04.233Z,3.32
2023-01-15T19:35:30.734Z,3.34
2023-01-15T19:37:57.215Z,3.39
2023-01-15T19:40:23.946Z,3.40
2023-01-15T19:43:08.924Z,3.42
2023-01-15T19:45:54.095Z,3.45
2023-01-15T19:48:39.231Z,3.48
2023-01-15T19:51:06.235Z,3.48
2023-01-15T19:53:34.072Z,3.47
2023-01-15T19:56:00.520Z,3.41
2023-01-15T19:58:27.134Z,3.40
2023-01-15T20:00:53.566Z,3.40
2023-01-15T20:03:20.048Z,3.40
2023-01-15T20:05:47.217Z,3.41
2023-01-15T20:08:16.920Z,3.41
2023-01-15T20:10:44.315Z,3.42
2023-01-15T20:13:30.993Z,3.43
2023-01-15T20:15:59.038Z,3.46
2023-01-15T20:18:25.503Z,3.49
2023-01-15T20:20:54.273Z,3.52
2023-01-15T20:23:20.730Z,3.51
2023-01-15T20:25:50.857Z,3.53
2023-01-15T20:28:17.413Z,3.57
2023-01-15T20:30:43.971Z,3.59
2023-01-15T20:33:10.527Z,2.47
2023-01-15T20:35:37.056Z,3.64
2023-01-15T20:38:03.575Z,3.62
2023-01-15T20:40:30.095Z,3.64
2023-01-15T20:43:15.279Z,3.63
2023-01-15T20:45:41.790Z,3.63
2023-01-15T20:48:14.165Z,3.65
2023-01-15T20:51:14.141Z,3.64
2023-01-15T20:53:41.754Z,3.66
2023-01-15T20:56:12.029Z,3.65
2023-01-15T20:58:38.518Z,3.66
2023-01-15T21:01:06.493Z,3.68
2023-01-15T21:03:33.166Z,3.64
2023-01-15T21:05:59.635Z,3.64
2023-01-15T21:08:26.099Z,3.65
2023-01-15T21:10:52.772Z,3.66
2023-01-15T21:13:22.258Z,3.62
2023-01-15T21:16:27.861Z,3.61
2023-01-15T21:18:54.456Z,3.69
2023-01-15T21:21:22.224Z,3.67
2023-01-15T21:23:48.908Z,3.66
2023-01-15T21:26:15.596Z,3.63
2023-01-15T21:28:42.359Z,3.62
2023-01-15T21:31:09.086Z,3.62
2023-01-15T21:33:35.639Z,3.61
2023-01-15T21:36:08.747Z,3.62
2023-01-15T21:42:22.322Z,3.62
2023-01-15T21:44:48.806Z,3.64
2023-01-15T21:47:52.329Z,3.66
2023-01-15T21:50:19.058Z,3.68
2023-01-15T21:52:45.589Z,3.67
2023-01-15T21:55:13.255Z,3.68
2023-01-15T21:57:39.837Z,3.69
2023-01-15T22:00:06.926Z,3.68
2023-01-15T22:02:34.726Z,3.67
2023-01-15T22:05:01.276Z,3.67
2023-01-15T22:07:27.671Z,3.64
2023-01-15T22:09:54.234Z,3.63
2023-01-15T22:12:20.826Z,3.62
2023-01-15T22:14:47.306Z,3.58
2023-01-15T22:17:13.804Z,3.58
2023-01-15T22:19:40.234Z,3.60
2023-01-15T22:22:10.633Z,3.60
2023-01-15T22:24:37.826Z,3.62
2023-01-15T22:27:06.544Z,3.63
2023-01-15T22:29:38.317Z,3.63
2023-01-15T22:32:05.194Z,3.66
2023-01-15T22:34:31.654Z,3.68
2023-01-15T22:36:58.093Z,3.69
2023-01-15T22:39:27.611Z,3.73
2023-01-15T22:42:12.958Z,3.75
2023-01-15T22:44:39.564Z,3.74
2023-01-15T22:47:06.235Z,3.78
2023-01-15T22:49:32.748Z,3.75
2023-01-15T22:51:59.164Z,3.77
2023-01-15T22:54:25.565Z,3.78
2023-01-15T22:56:52.016Z,3.78
2023-01-15T22:59:19.192Z,3.81
2023-01-15T23:01:45.835Z,3.82
2023-01-15T23:04:16.404Z,3.85
2023-01-15T23:06:43.182Z,3.85
2023-01-15T23:09:09.733Z,3.86
2023-01-15T23:11:36.424Z,3.87
2023-01-15T23:14:02.844Z,3.84
2023-01-15T23:16:29.412Z,3.86
2023-01-15T23:18:55.905Z,3.89
2023-01-15T23:21:22.849Z,3.94
2023-01-15T23:23:53.035Z,3.93
2023-01-15T23:26:19.861Z,3.89
2023-01-15T23:28:46.331Z,3.88
2023-01-15T23:31:12.862Z,3.86
2023-01-15T23:33:39.488Z,3.84
2023-01-15T23:36:07.132Z,3.81
2023-01-15T23:38:33.739Z,3.78
2023-01-15T23:41:00.189Z,3.74
2023-01-15T23:43:45.255Z,3.71
2023-01-15T23:46:32.419Z,3.74
2023-01-15T23:49:02.923Z,3.74
2023-01-15T23:51:29.380Z,3.66
2023-01-15T23:53:56.024Z,3.60
2023-01-15T23:56:22.454Z,3.51
2023-01-15T23:58:49.067Z,3.44
